You are listening to:
KSGJ ATIS - St Augustine, Florida, United States

KSGJ 240256Z AUTO 15007KT 10SM CLR 25/21 A3001 RMK AO2 SLP160 6//// T02500206 53002 PNO $

If stream doesn't start automatically press the play button
If stream stops then reload player then press play